Time;durP1;ratioP1;P1;durP2;ratioP2;P2;SDS_P1;SDS_P2;PMS_P1;PMS_P2;Temp;Humidity;BMP_temperature;BMP_pressure;BME280_temperature;BME280_humidity;BME280_pressure;Samples;Min_cycle;Max_cycle;Signal;HPM_P1;HPM_P2
2022/11/16 00:02:11;;;;;;;;;2.00;1.00;;;;;12.74;72.27;99328.34;5015671;28;46384;-74
2022/11/16 00:04:36;;;;;;;;;2.00;1.00;;;;;12.72;71.81;99322.44;5015764;28;46634;-75
2022/11/16 00:07:02;;;;;;;;;1.00;1.00;;;;;12.74;71.63;99327.56;5015827;28;45639;-76
2022/11/16 00:12:49;;;;;;;;;2.00;1.75;;;;;12.70;72.01;99323.56;5015512;28;45659;-75
2022/11/16 00:15:14;;;;;;;;;1.25;1.00;;;;;12.68;72.10;99323.75;4997694;28;47197;-76
2022/11/16 00:17:39;;;;;;;;;2.75;1.00;;;;;12.69;71.93;99329.81;5015548;28;46041;-75
2022/11/16 00:20:06;;;;;;;;;1.00;1.00;;;;;12.69;72.37;99330.63;5015339;28;45950;-75
2022/11/16 00:22:31;;;;;;;;;1.75;0.25;;;;;12.67;71.61;99323.91;5015319;28;46984;-77
2022/11/16 00:24:56;;;;;;;;;1.00;1.00;;;;;12.68;72.01;99322.91;5015547;28;46358;-74
2022/11/16 00:27:21;;;;;;;;;1.25;0.50;;;;;12.69;71.86;99335.06;5015468;28;45505;-75
2022/11/16 00:29:47;;;;;;;;;2.25;1.00;;;;;12.59;72.11;99314.97;5015450;28;45817;-75
2022/11/16 00:32:12;;;;;;;;;2.50;1.00;;;;;12.56;71.89;99312.66;5015244;28;47375;-75
2022/11/16 00:34:38;;;;;;;;;1.50;1.00;;;;;12.57;72.24;99316.94;5015271;28;45661;-76
2022/11/16 00:37:04;;;;;;;;;1.00;1.00;;;;;12.63;71.96;99320.75;5015352;28;45565;-75
2022/11/16 00:42:51;;;;;;;;;3.00;2.00;;;;;12.63;72.00;99320.75;5015164;28;45597;-75
2022/11/16 00:45:16;;;;;;;;;2.00;1.25;;;;;12.60;71.80;99321.06;5014974;28;46444;-74
2022/11/16 00:47:41;;;;;;;;;0.50;0.00;;;;;12.61;72.13;99313.03;5014953;28;46090;-75
2022/11/16 00:50:07;;;;;;;;;1.75;1.00;;;;;12.60;72.12;99314.00;5015350;28;45661;-75
2022/11/16 00:52:32;;;;;;;;;1.00;1.00;;;;;12.60;71.86;99318.41;5014833;28;47253;-74
2022/11/16 00:58:19;;;;;;;;;1.00;1.00;;;;;12.57;72.10;99316.13;5012855;28;45804;-76
2022/11/16 01:00:44;;;;;;;;;2.00;1.00;;;;;12.52;72.02;99319.19;5015343;28;45645;-76
2022/11/16 01:03:10;;;;;;;;;2.25;1.00;;;;;12.52;72.11;99321.00;5014927;28;45976;-76
2022/11/16 01:05:36;;;;;;;;;2.00;0.00;;;;;12.46;71.89;99324.25;5014600;28;46117;-75
2022/11/16 01:08:01;;;;;;;;;1.00;1.00;;;;;12.52;72.08;99334.94;5014797;28;45560;-75
2022/11/16 01:10:28;;;;;;;;;2.75;1.00;;;;;12.52;71.84;99337.56;5014933;28;45513;-75
2022/11/16 01:12:54;;;;;;;;;1.00;1.00;;;;;12.53;71.81;99333.97;5014886;28;46955;-74
2022/11/16 01:15:22;;;;;;;;;1.50;1.00;;;;;12.50;71.90;99320.31;5014711;28;45974;-75
2022/11/16 01:17:47;;;;;;;;;1.00;0.00;;;;;12.54;71.81;99321.66;5014529;28;45799;-75
2022/11/16 01:20:19;;;;;;;;;0.75;0.00;;;;;12.50;71.39;99315.06;5014779;28;45640;-75
2022/11/16 01:22:45;;;;;;;;;1.00;0.25;;;;;12.44;71.34;99307.78;5014526;28;45497;-74
2022/11/16 01:28:32;;;;;;;;;0.00;0.00;;;;;12.42;71.75;99315.81;5013926;28;45854;-75
2022/11/16 01:30:58;;;;;;;;;1.00;0.00;;;;;12.42;71.45;99320.25;5014835;28;45695;-75
2022/11/16 01:33:23;;;;;;;;;1.00;1.00;;;;;12.39;71.37;99324.00;5014016;28;45551;-75
2022/11/16 01:35:49;;;;;;;;;0.50;0.00;;;;;12.37;71.47;99325.97;5014461;28;45767;-75
2022/11/16 01:38:15;;;;;;;;;0.50;0.00;;;;;12.37;71.52;99325.13;5014427;28;45639;-74
2022/11/16 01:40:40;;;;;;;;;2.00;0.00;;;;;12.36;71.54;99329.56;5014703;28;45512;-75
2022/11/16 01:43:17;;;;;;;;;0.25;0.00;;;;;12.36;71.56;99329.56;5013920;28;46524;-75
2022/11/16 01:45:44;;;;;;;;;0.00;0.00;;;;;12.35;71.80;99325.31;5014477;28;45604;-75
2022/11/16 01:48:12;;;;;;;;;0.00;0.00;;;;;12.35;71.49;99327.09;5014309;28;45646;-75
2022/11/16 01:50:38;;;;;;;;;0.25;0.00;;;;;12.35;71.48;99322.69;5014398;28;45815;-75
2022/11/16 01:53:06;;;;;;;;;0.75;0.75;;;;;12.35;71.52;99319.22;5014404;28;46411;-74
2022/11/16 01:58:53;;;;;;;;;1.75;0.00;;;;;12.28;71.66;99316.38;5012795;28;45527;-75
2022/11/16 02:01:19;;;;;;;;;0.00;0.00;;;;;12.27;71.51;99313.88;5014265;28;45746;-74
2022/11/16 02:03:44;;;;;;;;;0.00;0.00;;;;;12.25;71.79;99318.50;4996055;28;47531;-75
2022/11/16 02:06:25;;;;;;;;;1.00;1.00;;;;;12.23;71.54;99317.81;5014198;28;46168;-76
2022/11/16 02:12:24;;;;;;;;;1.50;0.00;;;;;12.17;71.50;99306.09;5014120;28;45664;-75
2022/11/16 02:14:55;;;;;;;;;0.00;0.00;;;;;12.18;71.86;99315.63;5013745;28;46401;-75
2022/11/16 02:17:35;;;;;;;;;0.75;0.75;;;;;12.17;71.72;99319.22;5013195;28;46105;-75
2022/11/16 02:20:15;;;;;;;;;1.00;0.00;;;;;12.07;71.53;99303.56;5013982;28;45679;-75
2022/11/16 02:23:23;;;;;;;;;0.00;0.00;;;;;12.10;71.36;99303.25;5014165;28;45728;-75
2022/11/16 02:25:57;;;;;;;;;0.00;0.00;;;;;12.06;71.45;99307.16;4913987;28;45656;-74
2022/11/16 02:28:45;;;;;;;;;1.25;0.50;;;;;12.05;71.61;99309.94;4914297;28;46376;-75
2022/11/16 02:31:19;;;;;;;;;1.00;1.00;;;;;12.02;71.50;99316.31;4876294;29;45729;-74
2022/11/16 02:33:49;;;;;;;;;1.00;0.00;;;;;12.00;71.48;99304.31;4876272;29;45703;-76
2022/11/16 02:36:19;;;;;;;;;1.00;0.50;;;;;12.00;71.82;99315.63;4876102;29;47497;-76
2022/11/16 02:38:53;;;;;;;;;2.00;0.00;;;;;11.99;71.58;99319.22;4876260;29;46394;-74
2022/11/16 02:41:21;;;;;;;;;1.25;0.50;;;;;11.98;71.58;99306.28;4876093;29;45704;-74
2022/11/16 02:43:59;;;;;;;;;0.00;0.00;;;;;11.98;71.74;99312.34;4876248;29;45898;-76
2022/11/16 02:46:34;;;;;;;;;0.00;0.00;;;;;11.96;71.59;99298.53;4876105;29;45548;-74
2022/11/16 02:49:03;;;;;;;;;0.25;0.00;;;;;11.93;71.45;99305.91;4876172;29;45685;-76
2022/11/16 02:51:31;;;;;;;;;0.00;0.00;;;;;11.95;71.26;99309.19;4876415;29;45847;-73
2022/11/16 02:54:04;;;;;;;;;0.50;0.00;;;;;11.86;71.38;99289.91;4876267;29;45577;-75
2022/11/16 02:56:39;;;;;;;;;0.25;0.00;;;;;11.94;71.62;99305.72;4875774;29;46542;-76
2022/11/16 02:59:07;;;;;;;;;0.50;0.00;;;;;11.93;71.52;99300.66;4875556;29;46384;-75
2022/11/16 03:01:41;;;;;;;;;0.00;0.00;;;;;11.90;71.31;99298.31;4883024;28;45906;-74
2022/11/16 03:04:16;;;;;;;;;0.00;0.00;;;;;11.89;71.47;99305.34;4936137;28;45644;-74
2022/11/16 03:06:46;;;;;;;;;0.25;0.00;;;;;11.93;71.16;99298.81;4952110;28;45561;-75
2022/11/16 03:12:25;;;;;;;;;0.75;0.00;;;;;11.92;71.37;99289.31;4993382;28;45817;-75
2022/11/16 03:14:53;;;;;;;;;0.00;0.00;;;;;11.96;71.23;99295.09;4993310;28;45451;-74
2022/11/16 03:17:25;;;;;;;;;0.50;0.00;;;;;11.96;71.08;99284.59;4993409;28;45631;-75
2022/11/16 03:19:55;;;;;;;;;2.00;0.00;;;;;11.95;70.97;99285.56;4993308;28;46622;-75
2022/11/16 03:22:28;;;;;;;;;0.00;0.00;;;;;11.96;71.08;99289.84;4993372;28;45584;-76
2022/11/16 03:28:24;;;;;;;;;0.75;0.00;;;;;11.93;71.14;99280.44;4993092;28;46071;-75
2022/11/16 03:30:54;;;;;;;;;2.00;0.00;;;;;11.92;71.14;99273.56;4996586;28;46018;-75
2022/11/16 03:33:49;;;;;;;;;0.25;0.25;;;;;11.93;71.10;99277.81;4996344;28;45696;-75
2022/11/16 03:36:38;;;;;;;;;1.00;0.00;;;;;11.92;70.96;99276.19;4996848;28;45692;-74
2022/11/16 03:39:20;;;;;;;;;0.25;0.25;;;;;11.89;71.01;99273.84;4996264;28;46429;-76
2022/11/16 03:45:07;;;;;;;;;0.00;0.00;;;;;11.88;70.85;99260.88;4996110;28;45700;-75
2022/11/16 03:47:33;;;;;;;;;0.00;0.00;;;;;11.91;70.85;99266.66;4996628;28;45757;-75
2022/11/16 03:49:58;;;;;;;;;0.00;0.00;;;;;11.89;70.92;99252.88;4996433;28;45573;-75
2022/11/16 03:52:23;;;;;;;;;0.00;0.00;;;;;11.90;70.57;99259.75;4996373;28;45793;-75
2022/11/16 03:54:50;;;;;;;;;0.75;0.00;;;;;11.89;70.54;99255.50;4978318;28;45568;-75
2022/11/16 03:57:17;;;;;;;;;0.75;0.00;;;;;11.86;70.66;99254.97;4996005;28;45820;-73
2022/11/16 03:59:43;;;;;;;;;0.75;0.00;;;;;11.83;70.51;99250.84;5009846;28;48201;-75
2022/11/16 04:02:09;;;;;;;;;0.00;0.00;;;;;11.78;70.64;99235.53;5016026;28;46107;-75
2022/11/16 04:29:12;;;;;;;;;0.00;0.00;;;;;11.68;70.98;99236.56;5015644;28;45683;-75
2022/11/16 04:39:51;;;;;;;;;0.75;0.00;;;;;11.66;70.99;99230.66;5014834;28;45721;-75
2022/11/16 04:42:18;;;;;;;;;0.00;0.00;;;;;11.65;71.03;99229.00;5015498;28;45656;-76
2022/11/16 04:47:28;;;;;;;;;0.00;0.00;;;;;11.65;71.09;99236.88;5014816;28;45739;-75
2022/11/16 04:49:53;;;;;;;;;1.00;0.00;;;;;11.67;70.92;99229.66;5015319;28;45659;-75
2022/11/16 04:52:18;;;;;;;;;0.50;0.00;;;;;11.68;71.10;99228.69;5015128;28;46514;-76
2022/11/16 04:54:44;;;;;;;;;1.00;0.00;;;;;11.65;71.12;99223.75;5014783;28;47188;-75
2022/11/16 04:57:09;;;;;;;;;0.00;0.00;;;;;11.57;71.06;99205.31;5015126;28;45552;-75
2022/11/16 04:59:35;;;;;;;;;0.00;0.00;;;;;11.68;71.15;99226.91;5014958;28;45493;-74
2022/11/16 05:02:09;;;;;;;;;1.00;0.25;;;;;11.66;71.18;99223.59;5015077;28;45685;-75
2022/11/16 05:04:35;;;;;;;;;0.00;0.00;;;;;11.68;71.16;99234.78;5014389;28;46161;-75
2022/11/16 05:07:01;;;;;;;;;0.75;0.00;;;;;11.63;71.24;99221.28;4997022;28;46601;-75
2022/11/16 05:09:26;;;;;;;;;0.00;0.00;;;;;11.70;71.00;99229.38;5014784;28;45592;-76
2022/11/16 05:11:52;;;;;;;;;0.00;0.00;;;;;11.70;71.29;99227.59;5014387;28;46327;-75
2022/11/16 05:14:17;;;;;;;;;1.00;0.00;;;;;11.70;71.45;99232.84;5014882;28;45422;-76
2022/11/16 05:16:42;;;;;;;;;0.00;0.00;;;;;11.73;71.24;99229.09;5014867;28;45651;-75
2022/11/16 05:21:52;;;;;;;;;1.00;0.00;;;;;11.74;71.57;99234.22;5014303;28;45671;-74
2022/11/16 05:24:32;;;;;;;;;2.00;1.00;;;;;11.39;71.30;99159.91;5014509;28;45651;-74
2022/11/16 05:26:59;;;;;;;;;1.00;1.00;;;;;11.76;71.41;99224.41;5014623;28;45613;-76
2022/11/16 05:29:24;;;;;;;;;0.00;0.00;;;;;11.64;71.37;99203.75;5014281;28;45924;-75
2022/11/16 05:31:50;;;;;;;;;2.00;0.00;;;;;11.74;71.33;99217.63;4996328;28;47427;-76
2022/11/16 05:34:15;;;;;;;;;1.75;0.00;;;;;11.74;71.43;99217.63;5014515;28;45716;-74
2022/11/16 05:36:40;;;;;;;;;1.00;0.00;;;;;11.72;71.51;99214.28;5014062;28;45583;-74
2022/11/16 05:39:06;;;;;;;;;5.75;4.00;;;;;11.74;71.33;99220.25;5014500;28;45797;-75
2022/11/16 05:41:31;;;;;;;;;8.00;7.00;;;;;11.69;71.47;99212.81;5014423;28;45566;-75
2022/11/16 05:43:57;;;;;;;;;1.00;1.00;;;;;11.71;71.72;99208.22;5014270;28;45608;-75
2022/11/16 05:46:23;;;;;;;;;2.00;1.00;;;;;11.64;71.67;99204.56;5014011;28;45678;-75
2022/11/16 05:48:49;;;;;;;;;0.75;0.00;;;;;11.71;71.79;99216.09;5014295;28;45540;-75
2022/11/16 05:51:15;;;;;;;;;2.00;0.00;;;;;11.69;71.81;99215.44;5012893;28;47540;-75
2022/11/16 05:53:41;;;;;;;;;0.75;0.75;;;;;11.67;71.89;99212.13;4996074;28;48424;-74
2022/11/16 05:56:07;;;;;;;;;1.75;1.00;;;;;11.66;71.94;99213.09;5013801;28;45568;-75
2022/11/16 05:58:32;;;;;;;;;2.00;0.00;;;;;11.70;71.77;99221.50;5013861;28;45914;-75
2022/11/16 06:00:58;;;;;;;;;2.50;1.00;;;;;11.67;71.79;99211.31;5014085;28;45523;-74
2022/11/16 06:03:23;;;;;;;;;1.00;0.25;;;;;11.70;72.07;99219.72;5013895;28;46307;-75
2022/11/16 06:05:52;;;;;;;;;0.75;0.50;;;;;11.70;71.91;99217.09;5014206;28;45556;-76
2022/11/16 06:08:17;;;;;;;;;1.00;0.75;;;;;11.69;72.13;99210.19;4996297;28;45697;-75
2022/11/16 06:10:43;;;;;;;;;3.50;1.00;;;;;11.63;72.22;99207.34;5013738;28;47459;-74
2022/11/16 06:16:32;;;;;;;;;1.00;1.00;;;;;11.67;72.11;99219.16;5013868;28;45683;-75
2022/11/16 06:18:58;;;;;;;;;0.25;0.25;;;;;11.67;72.19;99225.25;4996488;28;45547;-75
2022/11/16 06:21:23;;;;;;;;;1.00;1.00;;;;;11.66;72.10;99217.53;5014157;28;46449;-75
2022/11/16 06:23:49;;;;;;;;;1.25;1.00;;;;;11.66;72.46;99220.97;5013948;28;45893;-75
2022/11/16 06:26:14;;;;;;;;;3.00;2.00;;;;;11.68;72.42;99221.66;5013892;28;45580;-75
2022/11/16 06:32:01;;;;;;;;;1.75;0.50;;;;;11.65;72.25;99224.59;5013614;28;45670;-75
2022/11/16 06:34:27;;;;;;;;;1.00;1.00;;;;;11.68;72.55;99213.78;5013571;28;45794;-73
2022/11/16 06:36:52;;;;;;;;;1.00;0.00;;;;;11.65;72.36;99214.09;5013352;28;45591;-75
2022/11/16 06:39:17;;;;;;;;;2.00;0.50;;;;;11.64;72.24;99211.63;5013570;28;45492;-76
2022/11/16 06:41:46;;;;;;;;;0.50;0.50;;;;;11.62;72.46;99208.31;5013596;28;45553;-75
2022/11/16 06:44:11;;;;;;;;;0.75;0.75;;;;;11.64;72.34;99217.69;4995464;28;48398;-75
2022/11/16 06:46:36;;;;;;;;;0.50;0.00;;;;;11.64;72.59;99215.06;5013152;28;45512;-75
2022/11/16 06:49:02;;;;;;;;;1.50;1.00;;;;;11.55;72.63;99194.97;5013370;28;45576;-75
2022/11/16 06:51:27;;;;;;;;;1.00;0.75;;;;;11.63;72.41;99202.91;4995431;28;47442;-74
2022/11/16 06:53:52;;;;;;;;;1.00;1.00;;;;;11.63;72.60;99202.91;5013384;28;45695;-74
2022/11/16 06:56:18;;;;;;;;;2.25;0.75;;;;;11.61;72.78;99204.03;5013132;28;45873;-77
2022/11/16 07:02:45;;;;;;;;;2.00;1.25;;;;;11.51;72.67;99187.53;5013084;28;45643;-76
2022/11/16 07:05:10;;;;;;;;;7.75;7.75;;;;;11.61;72.79;99202.22;5017513;28;47308;-77
2022/11/16 07:07:36;;;;;;;;;8.50;7.00;;;;;11.66;72.75;99201.81;5000067;28;45607;-78
2022/11/16 07:10:02;;;;;;;;;3.75;2.00;;;;;11.66;72.90;99210.47;5021700;28;45467;-83
2022/11/16 07:12:28;;;;;;;;;2.75;1.25;;;;;11.68;72.44;99208.53;5019428;28;46920;-77
2022/11/16 07:14:53;;;;;;;;;11.00;6.00;;;;;11.69;72.78;99215.44;4999520;28;46248;-80
2022/11/16 07:17:19;;;;;;;;;2.25;2.00;;;;;11.71;72.49;99231.84;5017741;28;45672;-83
2022/11/16 07:19:44;;;;;;;;;8.50;6.50;;;;;11.67;72.78;99214.75;5017035;28;45960;-77
2022/11/16 07:22:09;;;;;;;;;5.75;3.50;;;;;11.74;72.50;99226.34;5017003;28;46487;-81
2022/11/16 07:24:35;;;;;;;;;2.00;2.00;;;;;11.76;72.53;99228.81;5017576;28;46027;-81
2022/11/16 07:27:00;;;;;;;;;2.25;1.75;;;;;11.76;72.78;99224.41;5019198;28;45523;-81
2022/11/16 07:32:47;;;;;;;;;2.00;1.25;;;;;11.78;72.46;99211.09;5016314;28;45654;-77
2022/11/16 07:35:12;;;;;;;;;4.00;2.25;;;;;11.84;72.77;99223.63;5017346;28;45961;-78
2022/11/16 07:37:38;;;;;;;;;2.75;1.50;;;;;11.85;72.78;99208.72;5016715;28;45888;-75
2022/11/16 07:40:04;;;;;;;;;1.50;1.50;;;;;11.87;72.70;99225.13;5016675;28;45693;-79
2022/11/16 07:42:29;;;;;;;;;19.75;19.50;;;;;11.90;72.82;99230.91;4998602;28;45563;-75
2022/11/16 07:44:54;;;;;;;;;2.50;2.50;;;;;11.85;72.81;99214.78;5015848;28;46172;-76
2022/11/16 07:47:20;;;;;;;;;2.00;2.00;;;;;11.93;72.72;99217.47;5016396;28;45650;-80
2022/11/16 07:49:47;;;;;;;;;4.50;2.50;;;;;11.92;72.93;99213.22;5016683;28;45798;-74
2022/11/16 07:52:12;;;;;;;;;2.25;2.00;;;;;11.98;72.83;99215.22;5015788;28;45600;-77
2022/11/16 07:54:38;;;;;;;;;3.75;2.00;;;;;12.00;72.91;99221.13;5016047;28;46205;-79
2022/11/16 07:57:04;;;;;;;;;4.00;3.00;;;;;12.00;72.88;99208.00;5015613;28;45652;-78
2022/11/16 08:02:51;;;;;;;;;8.25;4.50;;;;;12.09;72.80;99227.28;5013377;28;45924;-78
2022/11/16 08:05:16;;;;;;;;;5.75;3.75;;;;;12.12;72.75;99226.97;5014167;28;46374;-76
2022/11/16 08:07:41;;;;;;;;;4.25;3.25;;;;;12.12;72.96;99224.34;5015967;28;45680;-73
2022/11/16 08:10:07;;;;;;;;;3.50;3.00;;;;;12.17;72.93;99222.09;5015634;28;45725;-76
2022/11/16 08:12:33;;;;;;;;;1.75;1.75;;;;;12.18;73.06;99236.88;5015059;28;47666;-76
2022/11/16 08:18:19;;;;;;;;;3.50;2.00;;;;;12.14;72.82;99211.91;5015851;28;45834;-75
2022/11/16 08:20:45;;;;;;;;;3.25;2.50;;;;;12.26;73.09;99218.53;5016146;28;45960;-76
2022/11/16 08:23:10;;;;;;;;;3.25;2.50;;;;;12.29;73.17;99223.50;5016694;28;45692;-76
2022/11/16 08:25:36;;;;;;;;;3.50;3.00;;;;;12.32;72.85;99231.03;5016341;28;45733;-76
2022/11/16 08:28:02;;;;;;;;;3.25;2.75;;;;;12.35;72.67;99236.00;5015950;28;45577;-79
2022/11/16 08:30:27;;;;;;;;;3.75;2.50;;;;;12.31;73.03;99225.97;5015945;28;45530;-79
2022/11/16 08:32:52;;;;;;;;;4.50;2.00;;;;;12.37;72.96;99223.53;5014831;28;47186;-78
2022/11/16 08:35:18;;;;;;;;;4.75;3.00;;;;;12.42;73.04;99233.56;5015547;28;46178;-78
2022/11/16 08:37:43;;;;;;;;;2.50;2.50;;;;;12.42;73.08;99223.88;5015641;28;45555;-76
2022/11/16 08:40:09;;;;;;;;;3.75;3.00;;;;;12.46;72.73;99222.63;5015920;28;45513;-76
2022/11/16 08:42:35;;;;;;;;;2.00;2.00;;;;;12.48;72.68;99227.69;5015865;28;46594;-75
2022/11/16 08:48:22;;;;;;;;;2.75;2.00;;;;;12.50;73.22;99226.56;5014964;28;45705;-78
2022/11/16 08:50:47;;;;;;;;;2.50;2.00;;;;;12.54;72.88;99233.16;5015057;28;45782;-77
2022/11/16 08:53:14;;;;;;;;;4.50;3.00;;;;;12.55;72.95;99220.84;5014735;28;46682;-77
2022/11/16 08:55:41;;;;;;;;;2.75;2.00;;;;;12.58;73.45;99216.09;5015000;28;45968;-79
2022/11/16 08:58:06;;;;;;;;;2.00;1.00;;;;;12.60;73.15;99216.78;5014676;28;45555;-75
2022/11/16 09:00:31;;;;;;;;;1.00;1.00;;;;;12.65;72.98;99211.06;5015208;28;45715;-78
2022/11/16 09:02:57;;;;;;;;;4.00;1.00;;;;;12.65;73.47;99204.97;5014496;28;46926;-78
2022/11/16 09:05:22;;;;;;;;;3.00;1.75;;;;;12.73;73.30;99205.03;5014152;28;45735;-80
2022/11/16 09:07:47;;;;;;;;;2.50;1.75;;;;;12.72;73.48;99212.09;5014803;28;45648;-78
2022/11/16 09:10:13;;;;;;;;;2.00;1.25;;;;;12.80;73.78;99214.72;5014919;28;45571;-76
2022/11/16 09:12:39;;;;;;;;;2.00;1.00;;;;;12.82;73.22;99199.63;5014357;28;46498;-77
2022/11/16 09:18:27;;;;;;;;;3.25;1.00;;;;;12.83;73.13;99201.28;5014485;28;45656;-78
2022/11/16 09:20:52;;;;;;;;;0.75;0.00;;;;;12.88;72.63;99195.56;5014572;28;45497;-78
2022/11/16 09:23:18;;;;;;;;;1.25;1.00;;;;;12.93;72.83;99212.50;5014213;28;47586;-78
2022/11/16 09:25:47;;;;;;;;;1.75;1.00;;;;;12.96;72.98;99200.84;5014473;28;45931;-77
2022/11/16 09:28:16;;;;;;;;;1.75;1.00;;;;;12.98;72.73;99196.25;5014441;28;45598;-77
2022/11/16 09:34:03;;;;;;;;;1.50;1.50;;;;;13.06;72.71;99196.28;5014477;28;45532;-77
2022/11/16 09:36:29;;;;;;;;;0.00;0.00;;;;;13.14;72.46;99201.59;5015146;28;45596;-77
2022/11/16 09:38:55;;;;;;;;;1.75;1.75;;;;;13.18;72.69;99192.41;5015462;28;45728;-75
2022/11/16 09:41:36;;;;;;;;;1.00;1.00;;;;;13.23;72.52;99189.28;5014506;28;45501;-76
2022/11/16 09:44:27;;;;;;;;;2.75;1.00;;;;;13.25;72.61;99193.41;5014501;28;45701;-77
2022/11/16 09:46:58;;;;;;;;;0.75;0.25;;;;;13.27;72.12;99183.56;4914349;28;46593;-75
2022/11/16 09:49:29;;;;;;;;;0.75;0.75;;;;;13.30;72.00;99180.59;4914289;28;45729;-77
2022/11/16 09:52:01;;;;;;;;;1.75;1.00;;;;;13.33;72.14;99177.63;4914673;28;45692;-76
2022/11/16 09:54:31;;;;;;;;;0.00;0.00;;;;;13.34;72.50;99174.03;4914852;28;45649;-76
2022/11/16 09:57:01;;;;;;;;;2.00;1.00;;;;;13.40;72.45;99178.63;4914973;28;47437;-78
2022/11/16 09:59:35;;;;;;;;;5.00;1.50;;;;;13.38;71.98;99178.00;4914124;28;45553;-79
2022/11/16 10:02:21;;;;;;;;;3.50;2.00;;;;;13.46;72.42;99179.78;4917824;28;45648;-80
2022/11/16 10:04:59;;;;;;;;;1.00;1.00;;;;;13.49;71.93;99168.13;4933389;28;45534;-79
2022/11/16 10:07:47;;;;;;;;;1.00;0.75;;;;;13.48;72.20;99163.84;4917207;28;46002;-77
2022/11/16 10:10:54;;;;;;;;;3.75;2.00;;;;;13.53;72.02;99156.28;4932987;28;45772;-76
2022/11/16 10:13:45;;;;;;;;;1.00;1.00;;;;;13.54;71.94;99174.56;4933489;28;45754;-78
2022/11/16 10:16:37;;;;;;;;;3.00;1.00;;;;;13.55;72.13;99173.53;4875781;29;45564;-76
2022/11/16 10:19:09;;;;;;;;;0.00;0.00;;;;;13.57;71.87;99187.38;4820788;29;45960;-77
2022/11/16 10:21:49;;;;;;;;;1.00;1.00;;;;;13.59;71.39;99193.31;4820429;29;45762;-77
2022/11/16 10:24:32;;;;;;;;;0.00;0.00;;;;;13.57;71.12;99183.91;4860861;29;45569;-77
2022/11/16 10:27:26;;;;;;;;;1.00;1.00;;;;;13.65;70.98;99186.56;4875986;29;46855;-79
2022/11/16 10:30:18;;;;;;;;;2.00;1.00;;;;;13.66;70.95;99194.28;4876033;29;46119;-78
2022/11/16 10:32:56;;;;;;;;;1.00;0.75;;;;;13.64;70.68;99188.38;4875828;29;45597;-77
2022/11/16 10:35:38;;;;;;;;;1.75;0.75;;;;;13.63;70.44;99193.81;4876122;29;46065;-76
2022/11/16 10:38:14;;;;;;;;;1.00;1.00;;;;;13.70;70.18;99192.16;4861397;29;46436;-77
2022/11/16 10:40:40;;;;;;;;;3.00;1.00;;;;;13.73;70.15;99192.66;4879332;29;45932;-75
2022/11/16 10:43:22;;;;;;;;;0.50;0.25;;;;;13.77;70.36;99187.88;4879021;29;45831;-78
2022/11/16 10:46:11;;;;;;;;;1.00;1.00;;;;;13.81;70.21;99174.25;4879301;29;45753;-78
2022/11/16 10:49:14;;;;;;;;;0.50;0.50;;;;;13.84;69.69;99180.97;4879311;29;45541;-78
2022/11/16 10:51:41;;;;;;;;;0.25;0.00;;;;;13.86;70.08;99174.56;4879177;29;47879;-79
2022/11/16 10:54:17;;;;;;;;;1.25;0.25;;;;;13.92;69.59;99162.56;4951859;28;45677;-76
2022/11/16 10:56:46;;;;;;;;;1.00;0.00;;;;;13.96;69.37;99163.88;4996299;28;45587;-77
2022/11/16 10:59:14;;;;;;;;;0.00;0.00;;;;;13.98;69.33;99161.88;5016921;28;46626;-77
2022/11/16 11:01:48;;;;;;;;;0.75;0.75;;;;;14.02;69.01;99152.66;5016464;28;46427;-78
2022/11/16 11:04:23;;;;;;;;;0.00;0.00;;;;;14.06;68.99;99153.16;5016615;28;45666;-76
2022/11/16 11:07:00;;;;;;;;;2.00;1.00;;;;;14.09;69.27;99153.63;5016705;28;45661;-79
2022/11/16 11:09:37;;;;;;;;;0.25;0.25;;;;;14.11;69.06;99141.13;5017049;28;45566;-78
2022/11/16 11:18:22;;;;;;;;;2.50;1.50;;;;;14.26;68.58;99138.59;5016308;28;45664;-76
2022/11/16 11:21:10;;;;;;;;;1.75;1.00;;;;;14.29;68.12;99146.19;5016453;28;45671;-75
2022/11/16 11:23:46;;;;;;;;;0.00;0.00;;;;;14.35;68.21;99128.88;4916464;28;45639;-76
2022/11/16 11:26:38;;;;;;;;;0.50;0.00;;;;;14.35;68.10;99127.09;4916677;28;45752;-76
2022/11/16 11:29:25;;;;;;;;;1.50;1.00;;;;;14.40;68.31;99124.78;4916918;28;45907;-77
2022/11/16 11:35:27;;;;;;;;;3.50;1.00;;;;;14.49;67.56;99123.75;4916501;28;46306;-78
2022/11/16 11:37:55;;;;;;;;;0.25;0.00;;;;;14.51;67.79;99118.31;4916768;28;45731;-76
2022/11/16 11:40:22;;;;;;;;;1.25;1.00;;;;;14.53;67.30;99127.69;4916394;28;45916;-77
2022/11/16 11:43:02;;;;;;;;;0.75;0.25;;;;;14.57;67.54;99122.91;4916208;28;47288;-78
2022/11/16 11:45:55;;;;;;;;;1.00;0.50;;;;;14.61;67.05;99118.94;4916417;28;45931;-77
2022/11/16 11:48:33;;;;;;;;;1.00;0.75;;;;;14.67;67.30;99118.25;4916088;28;45747;-80
2022/11/16 11:51:14;;;;;;;;;4.00;2.00;;;;;14.70;67.18;99110.81;4915472;28;45668;-77
2022/11/16 11:53:48;;;;;;;;;0.00;0.00;;;;;14.75;66.99;99104.19;4915577;28;46951;-76
2022/11/16 11:56:14;;;;;;;;;1.00;1.00;;;;;14.76;66.79;99105.84;4916062;28;46119;-77
2022/11/16 11:58:41;;;;;;;;;3.00;0.25;;;;;14.79;66.20;99111.59;4916312;28;45686;-77
2022/11/16 12:01:24;;;;;;;;;2.00;2.00;;;;;14.82;65.62;99107.81;4981772;28;45910;-76
2022/11/16 12:04:23;;;;;;;;;1.25;0.25;;;;;14.80;66.14;99092.16;5013072;28;46665;-75
2022/11/16 12:07:02;;;;;;;;;1.75;0.00;;;;;14.79;65.66;99087.06;5015623;28;46579;-77
2022/11/16 12:09:42;;;;;;;;;1.25;0.00;;;;;14.83;65.69;99099.72;5016306;28;45741;-77
2022/11/16 12:12:35;;;;;;;;;1.00;1.00;;;;;14.87;65.47;99100.19;5016521;28;45511;-77
2022/11/16 12:18:41;;;;;;;;;1.00;1.00;;;;;14.92;65.29;99089.94;5014852;28;45670;-79
2022/11/16 12:21:21;;;;;;;;;0.00;0.00;;;;;14.94;65.24;99094.06;5014457;28;45795;-76
2022/11/16 12:24:01;;;;;;;;;2.75;1.00;;;;;14.97;65.17;99091.06;5013255;28;45603;-76
2022/11/16 12:26:40;;;;;;;;;2.00;0.50;;;;;14.98;65.05;99082.16;5015158;28;45605;-76
2022/11/16 12:29:25;;;;;;;;;1.50;1.00;;;;;15.01;64.75;99083.63;5014490;28;46793;-76
2022/11/16 12:35:31;;;;;;;;;1.75;1.00;;;;;15.08;64.74;99080.13;5011219;28;45741;-74
2022/11/16 12:38:15;;;;;;;;;1.00;1.00;;;;;15.11;64.78;99066.56;5013920;28;46662;-78
2022/11/16 12:41:03;;;;;;;;;1.75;1.00;;;;;15.13;64.97;99061.13;5014251;28;46242;-79
2022/11/16 12:43:57;;;;;;;;;2.00;1.00;;;;;15.17;64.91;99061.59;5015302;28;45673;-79
2022/11/16 12:46:25;;;;;;;;;2.00;1.00;;;;;15.21;64.75;99060.25;5013850;28;45550;-78
2022/11/16 12:49:15;;;;;;;;;1.75;1.50;;;;;15.23;64.52;99052.97;5015054;28;46314;-77
2022/11/16 12:52:06;;;;;;;;;1.75;1.00;;;;;15.24;64.42;99059.88;5015241;28;46067;-77
2022/11/16 12:54:49;;;;;;;;;2.00;1.00;;;;;15.25;64.63;99053.63;5015369;28;45697;-78
2022/11/16 12:57:33;;;;;;;;;2.50;1.00;;;;;15.25;63.79;99061.53;5014049;28;45639;-79
2022/11/16 13:00:25;;;;;;;;;1.00;1.00;;;;;15.24;64.08;99059.88;5014947;28;46602;-77
2022/11/16 13:02:57;;;;;;;;;0.00;0.00;;;;;15.24;64.16;99054.59;4955764;28;46047;-81
2022/11/16 13:05:42;;;;;;;;;1.50;0.00;;;;;15.18;64.22;99042.13;4957603;28;45808;-79
2022/11/16 13:08:24;;;;;;;;;2.25;1.00;;;;;15.26;63.88;99039.44;4957729;28;45701;-78
2022/11/16 13:10:56;;;;;;;;;2.25;1.00;;;;;15.27;63.92;99043.72;4954685;28;46913;-76
2022/11/16 13:13:28;;;;;;;;;1.50;1.00;;;;;15.27;63.94;99038.44;4954043;28;46064;-79
2022/11/16 13:19:16;;;;;;;;;3.50;1.00;;;;;15.23;64.19;99006.28;4953516;28;45828;-80
2022/11/16 13:22:02;;;;;;;;;1.00;1.00;;;;;15.29;64.02;99016.13;4953501;28;46440;-75
2022/11/16 13:24:58;;;;;;;;;0.25;0.00;;;;;15.27;63.78;99004.97;4877060;29;46722;-77
2022/11/16 13:27:35;;;;;;;;;1.25;0.25;;;;;15.27;64.11;99002.31;4877452;29;45652;-80
2022/11/16 13:30:17;;;;;;;;;2.00;1.00;;;;;15.30;64.17;98996.66;4877644;29;45556;-77
2022/11/16 13:36:35;;;;;;;;;1.75;1.00;;;;;15.35;64.13;98989.03;4876718;29;46032;-79
2022/11/16 13:39:05;;;;;;;;;2.00;1.75;;;;;15.37;64.54;98980.94;4885989;28;45761;-75
2022/11/16 13:41:34;;;;;;;;;1.75;1.75;;;;;15.37;64.36;98979.13;4914749;28;45607;-78
2022/11/16 13:44:02;;;;;;;;;1.00;0.00;;;;;15.41;64.32;98976.94;4914681;28;45726;-77
2022/11/16 13:49:53;;;;;;;;;3.00;2.00;;;;;15.43;64.62;98969.69;4914729;28;45687;-78
2022/11/16 13:52:19;;;;;;;;;3.00;1.00;;;;;15.40;64.08;98959.47;4915098;28;45559;-78
2022/11/16 13:54:51;;;;;;;;;1.00;0.00;;;;;15.37;64.28;98973.03;4914287;28;46698;-75
2022/11/16 13:57:31;;;;;;;;;1.00;1.00;;;;;15.40;64.66;98973.47;4914240;28;46699;-75
2022/11/16 13:59:59;;;;;;;;;1.00;1.00;;;;;15.38;64.63;98961.47;4914431;28;45723;-78